Aeroporto :







RITROVATECI SU...

 
LOGIN :

Iscrizione | Disclaimer

   EN    FR    IT 

 









Sommario :    VFR   VFR Marginale   IFR   IFR Intensivo   IFR Molto Intensivo
Visibilità : 
Base nubi : 
>= 8 km
>= 3000ft
5 / 8 km
1000 / 3000 ft
1500m / 5 km
500 / 1000 ft
800 / 1500m
200 / 500 ft
< 800m
< 200 ft
Simboli :   Temporali  Nebbia  Neve Forte  Precipitazioni Forti  Vento > 20 kt







- Altitudine del aeroporto : 76 ft
- Codice IATA : EGS


BIEG - Egilsstaðir

ULTIMO METAR :
  • 250500Z 18005KT 9999 FEW027 06/04 Q1009 RMK WIND GAGNHEIDI 26020KT

METARs OBSOLETI :
  • 250400Z 17004KT 9999 BKN029 07/05 Q1009 RMK WIND GAGNHEIDI 25025KT
  • 250300Z 19006KT 9999 FEW027 SCT031 BKN039 09/06 Q1009 RMK WIND GAGNHEIDI 28021KT

TAF TAF BIEG
Valido dal 25 a 06 ore il 26 a 06 ore UTC


250501Z 2506/2606 18005KT 9999 FEW025 BKN037 TX14/2516Z TN06/2506Z
BECMG 2515/2518 18015G25KT
BECMG 2520/2523 RA BKN025 OVC040
Nessun NOTAM noto per questo aeroporto.



MetMap, La meteo Aeronautica in un colpo d'occhio ! - Copyright ORBIFLY Dicembre 2007 - Disclaimer

ORBIFLY MET'MAP TEAM :

Programmazione e sviluppo : Alexandra Zaïnal
Concezione e sviluppo : Baudouin d'Aumeries
Co-Programmazione e sviluppo : Marc-Olivier Méhu
Supporto tecnico e logistico : Manuel Goepfert
Aiuto per la traduzione : Arnaldo La Scala

Contatto : metmap@orbifly.com




FONTI E CREDITI :

   NOAA